createdAt,value
2017-08-07T00:02:09.982Z,49.50
2017-08-07T00:04:36.982Z,47.57
2017-08-07T00:07:03.660Z,38.27
2017-08-07T00:09:30.158Z,43.93
2017-08-07T00:11:56.621Z,35.30
2017-08-07T00:14:23.038Z,32.27
2017-08-07T00:16:49.499Z,18.73
2017-08-07T00:19:16.665Z,27.20
2017-08-07T00:21:44.428Z,27.17
2017-08-07T00:24:10.841Z,16.70
2017-08-07T00:26:37.394Z,14.20
2017-08-07T00:29:03.858Z,13.13
2017-08-07T00:31:30.357Z,16.47
2017-08-07T00:33:56.768Z,8.47
2017-08-07T00:36:23.191Z,10.63
2017-08-07T00:38:49.645Z,16.40
2017-08-07T00:41:16.097Z,9.60
2017-08-07T00:43:43.477Z,11.33
2017-08-07T00:46:09.937Z,10.67
2017-08-07T00:48:36.327Z,6.80
2017-08-07T00:51:02.863Z,7.23
2017-08-07T00:53:29.309Z,5.83
2017-08-07T00:55:55.782Z,10.73
2017-08-07T00:58:22.278Z,5.90
2017-08-07T01:00:48.693Z,4.00
2017-08-07T01:03:15.176Z,12.10
2017-08-07T01:05:41.580Z,8.20
2017-08-07T01:08:08.019Z,8.40
2017-08-07T01:10:34.449Z,7.53
2017-08-07T01:13:03.996Z,4.57
2017-08-07T01:15:30.475Z,2.13
2017-08-07T01:17:56.921Z,4.03
2017-08-07T01:20:23.344Z,2.47
2017-08-07T01:22:49.766Z,6.33
2017-08-07T01:25:16.213Z,5.87
2017-08-07T01:27:42.651Z,3.03
2017-08-07T01:30:09.140Z,3.00
2017-08-07T01:32:35.569Z,5.37
2017-08-07T01:35:01.943Z,5.43
2017-08-07T01:37:28.433Z,5.13
2017-08-07T01:39:54.878Z,9.70
2017-08-07T01:42:21.320Z,7.10
2017-08-07T01:44:47.778Z,13.77
2017-08-07T01:47:14.217Z,1.80
2017-08-07T01:49:40.631Z,14.13
2017-08-07T01:52:08.049Z,2.93
2017-08-07T01:54:34.467Z,6.30
2017-08-07T01:57:00.941Z,1.70
2017-08-07T01:59:27.403Z,2.57
2017-08-07T02:01:53.829Z,7.70
2017-08-07T02:04:20.246Z,5.47
2017-08-07T02:06:46.710Z,9.10
2017-08-07T02:09:13.090Z,8.70
2017-08-07T02:11:39.513Z,10.40
2017-08-07T02:14:05.962Z,3.00
2017-08-07T02:16:32.396Z,3.03
2017-08-07T02:18:58.922Z,2.90
2017-08-07T02:21:25.376Z,1.70
2017-08-07T02:23:51.812Z,6.20
2017-08-07T02:26:18.203Z,10.43
2017-08-07T02:28:44.603Z,3.50
2017-08-07T02:31:11.024Z,2.63
2017-08-07T02:33:37.419Z,5.60
2017-08-07T02:36:03.874Z,3.03
2017-08-07T02:38:30.271Z,2.77
2017-08-07T02:40:56.732Z,7.97
2017-08-07T02:43:23.215Z,1.60
2017-08-07T02:45:49.644Z,1.93
2017-08-07T02:48:16.098Z,7.80
2017-08-07T02:50:42.577Z,6.63
2017-08-07T02:53:09.063Z,8.03
2017-08-07T02:55:35.472Z,6.10
2017-08-07T02:58:01.863Z,5.93
2017-08-07T03:00:28.339Z,3.43
2017-08-07T03:02:54.728Z,3.03
2017-08-07T03:05:21.193Z,1.83
2017-08-07T03:07:47.609Z,2.33
2017-08-07T03:10:14.057Z,4.63
2017-08-07T03:12:40.519Z,3.63
2017-08-07T03:15:06.964Z,5.63
2017-08-07T03:17:33.378Z,2.00
2017-08-07T03:19:59.844Z,8.03
2017-08-07T03:22:26.321Z,4.20
2017-08-07T03:24:52.709Z,4.87
2017-08-07T03:27:19.202Z,6.50
2017-08-07T03:29:45.664Z,10.83
2017-08-07T03:32:12.072Z,4.43
2017-08-07T03:34:38.536Z,5.17
2017-08-07T03:37:04.915Z,4.67
2017-08-07T03:39:31.342Z,4.63
2017-08-07T03:41:57.773Z,4.70
2017-08-07T03:44:24.174Z,5.40
2017-08-07T03:46:50.606Z,2.67
2017-08-07T03:49:17.033Z,4.10
2017-08-07T03:51:43.489Z,11.73
2017-08-07T03:54:09.916Z,9.70
2017-08-07T03:56:36.306Z,4.07
2017-08-07T03:59:02.727Z,3.50
2017-08-07T04:01:29.575Z,8.63
2017-08-07T04:03:55.993Z,5.67
2017-08-07T04:06:22.425Z,3.70
2017-08-07T04:08:48.807Z,2.73
2017-08-07T04:11:15.327Z,7.20
2017-08-07T04:13:41.760Z,3.23
2017-08-07T04:16:08.189Z,7.53
2017-08-07T04:18:34.620Z,5.10
2017-08-07T04:21:01.437Z,2.83
2017-08-07T04:23:27.928Z,5.80
2017-08-07T04:25:54.513Z,6.97
2017-08-07T04:28:23.573Z,8.70
2017-08-07T04:30:52.168Z,2.40
2017-08-07T04:33:19.539Z,5.13
2017-08-07T04:35:46.014Z,12.00
2017-08-07T04:38:12.487Z,2.30
2017-08-07T04:40:39.021Z,3.87
2017-08-07T04:43:05.473Z,8.80
2017-08-07T04:45:31.888Z,6.13
2017-08-07T04:47:58.277Z,5.20
2017-08-07T04:50:24.749Z,1.63
2017-08-07T04:52:51.227Z,4.67
2017-08-07T04:55:17.916Z,5.03
2017-08-07T04:57:44.351Z,3.43
2017-08-07T05:00:10.802Z,4.20
2017-08-07T05:02:37.317Z,3.60
2017-08-07T05:05:03.685Z,3.13
2017-08-07T05:07:30.585Z,4.60
2017-08-07T05:09:57.000Z,2.63
2017-08-07T05:12:23.458Z,2.20
2017-08-07T05:14:49.857Z,1.50
2017-08-07T05:17:16.293Z,1.67
2017-08-07T05:19:42.778Z,5.43
2017-08-07T05:22:09.220Z,2.73
2017-08-07T05:24:35.705Z,4.17
2017-08-07T05:27:02.177Z,1.30
2017-08-07T05:29:28.599Z,3.60
2017-08-07T05:31:55.069Z,7.53
2017-08-07T05:34:21.512Z,4.93
2017-08-07T05:36:48.239Z,1.67
2017-08-07T05:39:14.713Z,1.00
2017-08-07T05:41:41.188Z,2.20
2017-08-07T05:44:07.589Z,2.40
2017-08-07T05:46:34.085Z,1.33
2017-08-07T05:49:00.492Z,13.93
2017-08-07T05:51:26.949Z,3.03
2017-08-07T05:53:53.358Z,1.80
2017-08-07T05:56:19.799Z,4.70
2017-08-07T05:58:46.235Z,2.70
2017-08-07T06:01:12.978Z,4.40
2017-08-07T06:03:39.432Z,4.47
2017-08-07T06:06:05.988Z,6.00
2017-08-07T06:08:32.388Z,4.77
2017-08-07T06:10:58.877Z,2.60
2017-08-07T06:13:25.349Z,2.50
2017-08-07T06:15:51.890Z,5.23
2017-08-07T06:18:18.351Z,9.10
2017-08-07T06:20:44.824Z,3.40
2017-08-07T06:23:11.283Z,2.20
2017-08-07T06:25:37.728Z,6.00
2017-08-07T06:28:04.264Z,4.20
2017-08-07T06:30:30.700Z,2.80
2017-08-07T06:33:01.044Z,4.30
2017-08-07T06:35:27.590Z,2.70
2017-08-07T06:37:54.121Z,4.60
2017-08-07T06:40:25.740Z,5.50
2017-08-07T06:42:52.200Z,4.27
2017-08-07T06:45:18.640Z,7.83
2017-08-07T06:47:45.197Z,2.90
2017-08-07T06:50:11.648Z,4.00
2017-08-07T06:52:38.166Z,2.47
2017-08-07T06:55:04.591Z,4.17
2017-08-07T06:57:31.042Z,7.47
2017-08-07T06:59:57.554Z,2.57
2017-08-07T07:02:23.965Z,2.80
2017-08-07T07:04:50.520Z,3.17
2017-08-07T07:07:16.981Z,2.33
2017-08-07T07:09:43.721Z,3.50
2017-08-07T07:12:10.172Z,2.03
2017-08-07T07:14:36.584Z,8.77
2017-08-07T07:17:03.062Z,4.47
2017-08-07T07:19:29.464Z,12.90
2017-08-07T07:21:55.929Z,3.87
2017-08-07T07:24:22.366Z,2.73
2017-08-07T07:26:48.896Z,2.87
2017-08-07T07:29:15.381Z,3.80
2017-08-07T07:31:41.910Z,2.60
2017-08-07T07:34:08.335Z,4.17
2017-08-07T07:36:35.140Z,2.90
2017-08-07T07:39:01.613Z,3.27
2017-08-07T07:41:28.086Z,5.37
2017-08-07T07:43:54.680Z,9.00
2017-08-07T07:46:21.098Z,3.33
2017-08-07T07:48:47.607Z,3.90
2017-08-07T07:51:14.081Z,3.93
2017-08-07T07:53:40.569Z,3.10
2017-08-07T07:56:07.967Z,4.30
2017-08-07T07:58:34.601Z,3.33
2017-08-07T08:01:01.030Z,2.90
2017-08-07T08:03:27.546Z,3.13
2017-08-07T08:05:54.083Z,4.30
2017-08-07T08:08:20.477Z,3.47
2017-08-07T08:10:46.974Z,2.07
2017-08-07T08:13:13.439Z,9.10
2017-08-07T08:15:39.868Z,3.67
2017-08-07T08:18:06.356Z,4.60
2017-08-07T08:20:32.865Z,5.03
2017-08-07T08:23:00.932Z,2.30
2017-08-07T08:25:27.428Z,3.57
2017-08-07T08:27:53.903Z,4.20
2017-08-07T08:30:20.377Z,8.83
2017-08-07T08:32:46.777Z,2.70
2017-08-07T08:35:13.303Z,2.87
2017-08-07T08:37:40.654Z,2.77
2017-08-07T08:40:07.133Z,5.03
2017-08-07T08:42:33.559Z,3.53
2017-08-07T08:45:00.028Z,4.17
2017-08-07T08:47:26.603Z,3.90
2017-08-07T08:49:53.313Z,4.23
2017-08-07T08:52:19.818Z,5.83
2017-08-07T08:54:46.952Z,10.83
2017-08-07T08:57:13.379Z,4.27
2017-08-07T08:59:39.897Z,6.87
2017-08-07T09:02:06.471Z,3.80
2017-08-07T09:04:32.910Z,2.53
2017-08-07T09:06:59.347Z,11.50
2017-08-07T09:09:26.550Z,8.90
2017-08-07T09:11:53.009Z,5.00
2017-08-07T09:14:19.520Z,5.70
2017-08-07T09:16:46.117Z,3.97
2017-08-07T09:19:12.660Z,4.07
2017-08-07T09:21:39.177Z,6.70
2017-08-07T09:24:05.695Z,2.80
2017-08-07T09:26:32.502Z,3.17
2017-08-07T09:28:59.912Z,10.77
2017-08-07T09:31:27.251Z,5.63
2017-08-07T09:33:53.698Z,7.00
2017-08-07T09:36:20.225Z,9.07
2017-08-07T09:38:46.644Z,5.93
2017-08-07T09:41:13.187Z,5.63
2017-08-07T09:43:39.643Z,6.30
2017-08-07T09:46:06.114Z,7.50
2017-08-07T09:48:32.648Z,4.70
2017-08-07T09:50:59.145Z,9.03
2017-08-07T09:53:25.659Z,10.73
2017-08-07T09:55:52.055Z,3.57
2017-08-07T09:58:18.528Z,3.10
2017-08-07T10:00:44.936Z,6.50
2017-08-07T10:03:11.424Z,3.53
2017-08-07T10:05:37.936Z,8.17
2017-08-07T10:08:04.570Z,3.37
2017-08-07T10:10:32.730Z,3.30
2017-08-07T10:13:03.151Z,7.93
2017-08-07T10:15:30.495Z,4.40
2017-08-07T10:17:57.062Z,5.70
2017-08-07T10:20:23.601Z,8.47
2017-08-07T10:22:49.987Z,7.87
2017-08-07T10:25:16.525Z,2.37
2017-08-07T10:27:44.806Z,6.23
2017-08-07T10:30:12.184Z,3.57
2017-08-07T10:32:38.656Z,2.23
2017-08-07T10:35:05.948Z,2.60
2017-08-07T10:37:32.457Z,10.63
2017-08-07T10:39:58.897Z,13.53
2017-08-07T10:42:26.065Z,7.70
2017-08-07T10:44:52.467Z,4.40
2017-08-07T10:47:18.936Z,6.10
2017-08-07T10:49:45.414Z,4.30
2017-08-07T10:52:11.927Z,3.53
2017-08-07T10:54:38.500Z,8.03
2017-08-07T10:57:05.014Z,3.07
2017-08-07T10:59:32.151Z,2.80
2017-08-07T11:01:58.988Z,4.07
2017-08-07T11:04:26.272Z,5.63
2017-08-07T11:06:52.684Z,3.73
2017-08-07T11:09:19.146Z,2.57
2017-08-07T11:11:46.474Z,2.70
2017-08-07T11:14:13.319Z,4.23
2017-08-07T11:16:39.766Z,4.37
2017-08-07T11:19:06.768Z,2.73
2017-08-07T11:21:33.321Z,8.03
2017-08-07T11:24:00.598Z,4.20
2017-08-07T11:26:27.104Z,8.83
2017-08-07T11:28:53.678Z,2.77
2017-08-07T11:31:20.237Z,3.43
2017-08-07T11:33:46.699Z,6.33
2017-08-07T11:36:13.238Z,3.80
2017-08-07T11:38:39.750Z,3.77
2017-08-07T11:41:06.774Z,4.10
2017-08-07T11:43:33.782Z,5.40
2017-08-07T11:46:01.145Z,3.83
2017-08-07T11:48:28.385Z,4.73
2017-08-07T11:50:55.717Z,4.53
2017-08-07T11:53:22.248Z,7.00
2017-08-07T11:55:48.746Z,8.33
2017-08-07T11:58:15.223Z,2.87
2017-08-07T12:00:41.778Z,6.93
2017-08-07T12:03:08.474Z,3.33
2017-08-07T12:05:34.966Z,2.30
2017-08-07T12:08:01.426Z,2.90
2017-08-07T12:10:27.919Z,2.70
2017-08-07T12:12:54.390Z,4.10
2017-08-07T12:15:21.755Z,4.63
2017-08-07T12:17:48.288Z,7.60
2017-08-07T12:20:14.733Z,3.93
2017-08-07T12:22:41.204Z,4.77
2017-08-07T12:25:07.689Z,2.63
2017-08-07T12:27:34.175Z,12.57
2017-08-07T12:30:00.644Z,7.23
2017-08-07T12:32:27.148Z,4.00
2017-08-07T12:34:53.591Z,4.50
2017-08-07T12:37:20.154Z,4.50
2017-08-07T12:39:46.603Z,4.00
2017-08-07T12:42:13.111Z,10.87
2017-08-07T12:44:39.752Z,5.90
2017-08-07T12:47:06.126Z,6.33
2017-08-07T12:49:32.524Z,7.07
2017-08-07T12:51:59.049Z,11.53
2017-08-07T12:54:26.141Z,3.43
2017-08-07T12:56:53.052Z,9.87
2017-08-07T12:59:19.473Z,4.50
2017-08-07T13:01:46.464Z,3.70
2017-08-07T13:04:12.953Z,6.97
2017-08-07T13:06:39.437Z,6.33
2017-08-07T13:09:05.887Z,2.60
2017-08-07T13:11:32.347Z,6.50
2017-08-07T13:13:58.814Z,2.10
2017-08-07T13:16:25.258Z,6.10
2017-08-07T13:18:51.793Z,6.70
2017-08-07T13:21:19.057Z,4.23
2017-08-07T13:23:45.528Z,3.30
2017-08-07T13:26:12.857Z,11.10
2017-08-07T13:28:39.357Z,7.30
2017-08-07T13:31:06.075Z,12.83
2017-08-07T13:33:32.483Z,8.17
2017-08-07T13:35:58.925Z,4.77
2017-08-07T13:38:25.423Z,6.33
2017-08-07T13:40:52.827Z,8.83
2017-08-07T13:43:19.251Z,3.30
2017-08-07T13:45:45.765Z,13.80
2017-08-07T13:48:13.140Z,3.70
2017-08-07T13:50:39.653Z,17.13
2017-08-07T13:53:06.091Z,10.43
2017-08-07T13:55:32.605Z,3.17
2017-08-07T13:57:59.087Z,4.17
2017-08-07T14:00:26.286Z,7.93
2017-08-07T14:02:52.797Z,24.00
2017-08-07T14:05:19.298Z,9.23
2017-08-07T14:07:45.698Z,5.17
2017-08-07T14:10:12.150Z,4.93
2017-08-07T14:12:38.579Z,2.73
2017-08-07T14:15:05.291Z,8.00
2017-08-07T14:17:31.789Z,7.70
2017-08-07T14:19:58.267Z,3.53
2017-08-07T14:22:24.690Z,5.10
2017-08-07T14:24:51.203Z,7.83
2017-08-07T14:27:17.713Z,6.47
2017-08-07T14:29:44.267Z,6.23
2017-08-07T14:32:10.762Z,13.83
2017-08-07T14:34:37.173Z,7.50
2017-08-07T14:37:03.626Z,6.10
2017-08-07T14:39:30.074Z,2.70
2017-08-07T14:41:56.561Z,7.00
2017-08-07T14:44:23.251Z,10.90
2017-08-07T14:46:49.744Z,2.60
2017-08-07T14:49:16.851Z,9.73
2017-08-07T14:51:43.260Z,6.33
2017-08-07T14:54:09.974Z,3.13
2017-08-07T14:56:36.433Z,10.50
2017-08-07T14:59:03.446Z,12.33
2017-08-07T15:01:29.867Z,17.27
2017-08-07T15:03:56.386Z,5.57
2017-08-07T15:06:23.306Z,10.77
2017-08-07T15:08:49.737Z,5.17
2017-08-07T15:11:16.286Z,7.00
2017-08-07T15:13:42.782Z,9.30
2017-08-07T15:16:09.182Z,2.40
2017-08-07T15:18:36.560Z,17.20
2017-08-07T15:21:03.037Z,6.43
2017-08-07T15:23:29.516Z,9.43
2017-08-07T15:25:55.971Z,5.73
2017-08-07T15:28:22.464Z,7.27
2017-08-07T15:30:48.974Z,13.27
2017-08-07T15:33:15.492Z,11.80
2017-08-07T15:35:41.904Z,3.80
2017-08-07T15:38:09.208Z,7.93
2017-08-07T15:40:35.731Z,9.80
2017-08-07T15:43:02.232Z,5.90
2017-08-07T15:45:28.715Z,2.33
2017-08-07T15:47:55.146Z,6.00
2017-08-07T15:50:22.753Z,8.67
2017-08-07T15:52:49.266Z,11.37
2017-08-07T15:55:15.767Z,10.73
2017-08-07T15:57:42.269Z,6.40
2017-08-07T16:00:08.769Z,6.17
2017-08-07T16:02:35.168Z,8.80
2017-08-07T16:05:01.616Z,8.40
2017-08-07T16:07:28.046Z,9.47
2017-08-07T16:09:54.788Z,5.40
2017-08-07T16:12:21.267Z,8.00
2017-08-07T16:14:47.709Z,3.50
2017-08-07T16:17:14.236Z,2.40
2017-08-07T16:19:40.763Z,9.00
2017-08-07T16:22:07.833Z,13.10
2017-08-07T16:24:34.611Z,13.77
2017-08-07T16:27:01.046Z,10.10
2017-08-07T16:29:27.671Z,15.73
2017-08-07T16:31:54.164Z,5.17
2017-08-07T16:34:21.133Z,2.97
2017-08-07T16:36:47.621Z,6.93
2017-08-07T16:39:14.049Z,11.40
2017-08-07T16:41:40.520Z,3.90
2017-08-07T16:44:06.964Z,9.03
2017-08-07T16:46:33.374Z,5.23
2017-08-07T16:48:59.887Z,7.63
2017-08-07T16:51:26.306Z,10.03
2017-08-07T16:53:52.993Z,10.60
2017-08-07T16:56:20.796Z,5.97
2017-08-07T16:58:47.959Z,21.77
2017-08-07T17:01:17.826Z,14.30
2017-08-07T17:03:51.375Z,5.43
2017-08-07T17:09:14.675Z,6.53
2017-08-07T17:11:44.850Z,7.23
2017-08-07T17:14:13.590Z,7.13
2017-08-07T17:16:42.610Z,1.90
2017-08-07T17:19:09.490Z,8.10
2017-08-07T17:21:42.989Z,6.17
2017-08-07T17:24:10.560Z,2.77
2017-08-07T17:26:37.223Z,10.53
2017-08-07T17:29:04.086Z,6.47
2017-08-07T17:31:30.646Z,3.50
2017-08-07T17:33:57.129Z,2.27
2017-08-07T17:36:24.679Z,5.70
2017-08-07T17:38:55.386Z,5.17
2017-08-07T17:41:31.696Z,8.57
2017-08-07T17:44:03.714Z,19.70
2017-08-07T17:46:38.018Z,21.20
2017-08-07T17:49:08.550Z,5.33
2017-08-07T17:51:44.436Z,5.97
2017-08-07T17:54:17.130Z,3.33
2017-08-07T17:56:52.020Z,6.90
2017-08-07T17:59:26.840Z,6.63
2017-08-07T18:02:06.609Z,5.80
2017-08-07T18:04:47.440Z,13.23
2017-08-07T18:07:27.833Z,3.43
2017-08-07T18:10:07.690Z,6.50
2017-08-07T18:12:45.351Z,4.83
2017-08-07T18:15:23.915Z,9.90
2017-08-07T18:20:38.013Z,5.00
2017-08-07T18:23:17.005Z,7.43
2017-08-07T18:25:56.107Z,2.70
2017-08-07T18:28:26.076Z,2.20
2017-08-07T18:30:56.494Z,2.20
2017-08-07T18:33:31.583Z,2.03
2017-08-07T18:35:58.742Z,2.10
2017-08-07T18:41:19.678Z,2.40
2017-08-07T18:43:51.017Z,2.63
2017-08-07T18:46:27.750Z,1.90
2017-08-07T18:49:05.669Z,2.37
2017-08-07T18:51:37.646Z,11.07
2017-08-07T18:54:10.565Z,2.40
2017-08-07T18:56:40.474Z,10.63
2017-08-07T19:01:58.137Z,12.50
2017-08-07T19:04:24.660Z,10.27
2017-08-07T19:06:57.591Z,9.30
2017-08-07T19:09:29.289Z,9.23
2017-08-07T19:12:00.988Z,12.03
2017-08-07T19:14:29.108Z,19.77
2017-08-07T19:16:55.647Z,7.43
2017-08-07T19:19:25.146Z,10.23
2017-08-07T19:21:51.542Z,4.57
2017-08-07T19:24:38.542Z,5.80
2017-08-07T19:27:23.590Z,8.90
2017-08-07T19:30:11.103Z,3.67
2017-08-07T19:32:49.077Z,4.47
2017-08-07T19:38:16.105Z,2.73
2017-08-07T19:41:04.122Z,7.17
2017-08-07T19:43:47.958Z,4.73
2017-08-07T19:46:31.379Z,6.57
2017-08-07T19:49:10.527Z,6.77
2017-08-07T19:51:39.812Z,11.40
2017-08-07T19:54:18.135Z,9.67
2017-08-07T19:56:45.488Z,4.80
2017-08-07T19:59:13.763Z,7.03
2017-08-07T20:01:40.215Z,7.90
2017-08-07T20:04:06.819Z,8.90
2017-08-07T20:06:33.305Z,4.43
2017-08-07T20:08:59.928Z,9.60
2017-08-07T20:11:26.416Z,4.63
2017-08-07T20:13:53.812Z,5.00
2017-08-07T20:16:20.350Z,5.60
2017-08-07T20:18:46.803Z,5.57
2017-08-07T20:21:13.509Z,5.87
2017-08-07T20:23:39.971Z,5.00
2017-08-07T20:26:06.453Z,8.60
2017-08-07T20:28:32.930Z,4.40
2017-08-07T20:30:59.420Z,10.10
2017-08-07T20:33:25.939Z,8.83
2017-08-07T20:35:52.386Z,9.53
2017-08-07T20:38:18.923Z,4.17
2017-08-07T20:40:45.462Z,9.73
2017-08-07T20:43:11.949Z,3.73
2017-08-07T20:45:38.418Z,4.97
2017-08-07T20:48:05.668Z,3.33
2017-08-07T20:50:33.173Z,4.40
2017-08-07T20:53:05.607Z,7.70
2017-08-07T20:55:32.002Z,15.53
2017-08-07T20:57:59.514Z,4.73
2017-08-07T21:00:25.994Z,3.40
2017-08-07T21:02:52.502Z,6.10
2017-08-07T21:05:19.073Z,4.80
2017-08-07T21:07:45.517Z,5.43
2017-08-07T21:10:12.212Z,5.97
2017-08-07T21:12:38.867Z,9.87
2017-08-07T21:15:05.429Z,8.93
2017-08-07T21:17:31.917Z,6.23
2017-08-07T21:19:59.283Z,5.20
2017-08-07T21:22:25.787Z,8.30
2017-08-07T21:24:52.231Z,10.30
2017-08-07T21:27:18.675Z,3.37
2017-08-07T21:29:45.226Z,10.80
2017-08-07T21:32:11.724Z,5.03
2017-08-07T21:34:38.479Z,4.10
2017-08-07T21:37:05.780Z,3.20
2017-08-07T21:39:32.341Z,3.47
2017-08-07T21:41:59.144Z,3.17
2017-08-07T21:44:25.627Z,4.53
2017-08-07T21:46:53.019Z,3.40
2017-08-07T21:49:19.472Z,4.23
2017-08-07T21:51:45.973Z,5.20
2017-08-07T21:54:12.414Z,7.47
2017-08-07T21:56:39.711Z,3.43
2017-08-07T21:59:06.982Z,4.83
2017-08-07T22:01:34.232Z,3.87
2017-08-07T22:04:00.826Z,9.00
2017-08-07T22:06:28.419Z,7.93
2017-08-07T22:08:55.833Z,5.30
2017-08-07T22:11:22.956Z,4.57
2017-08-07T22:13:50.673Z,10.27
2017-08-07T22:16:18.641Z,13.53
2017-08-07T22:18:45.075Z,3.40
2017-08-07T22:21:11.606Z,3.53
2017-08-07T22:23:38.042Z,3.53
2017-08-07T22:26:04.494Z,4.93
2017-08-07T22:28:31.051Z,4.40
2017-08-07T22:31:07.563Z,4.17
2017-08-07T22:33:50.782Z,4.80
2017-08-07T22:36:32.824Z,6.37
2017-08-07T22:41:46.607Z,5.73
2017-08-07T22:44:13.100Z,5.10
2017-08-07T22:46:40.998Z,9.47
2017-08-07T22:49:07.445Z,15.83
2017-08-07T22:51:33.913Z,3.87
2017-08-07T22:54:00.413Z,5.83
2017-08-07T22:56:26.886Z,3.47
2017-08-07T22:58:53.427Z,5.97
2017-08-07T23:01:19.942Z,4.37
2017-08-07T23:03:46.464Z,5.67
2017-08-07T23:06:13.802Z,6.03
2017-08-07T23:08:40.538Z,5.60
2017-08-07T23:11:08.538Z,4.33
2017-08-07T23:13:35.105Z,5.33
2017-08-07T23:16:01.593Z,9.93
2017-08-07T23:18:28.050Z,5.13
2017-08-07T23:20:54.634Z,8.37
2017-08-07T23:23:21.123Z,4.97
2017-08-07T23:25:47.833Z,5.10
2017-08-07T23:28:14.494Z,9.57
2017-08-07T23:30:41.159Z,4.17
2017-08-07T23:33:07.651Z,9.77
2017-08-07T23:35:37.959Z,5.70
2017-08-07T23:38:06.882Z,6.20
2017-08-07T23:40:34.986Z,4.20
2017-08-07T23:43:07.630Z,3.53
2017-08-07T23:45:35.272Z,9.60
2017-08-07T23:48:03.192Z,3.90
2017-08-07T23:50:30.175Z,4.57
2017-08-07T23:53:02.842Z,6.07
2017-08-07T23:55:30.226Z,5.00
2017-08-07T23:57:56.656Z,6.53
